createdAt,value
2023-05-31T00:02:32.425Z,36.93
2023-05-31T00:05:33.966Z,37.30
2023-05-31T00:08:35.411Z,37.22
2023-05-31T00:11:36.871Z,37.21
2023-05-31T00:14:38.333Z,37.13
2023-05-31T00:20:44.263Z,37.18
2023-05-31T00:23:45.694Z,37.20
2023-05-31T00:26:47.161Z,37.53
2023-05-31T00:29:48.581Z,37.43
2023-05-31T00:32:50.287Z,37.36
2023-05-31T00:35:51.739Z,37.37
2023-05-31T00:38:53.182Z,37.56
2023-05-31T00:41:54.722Z,37.35
2023-05-31T00:44:56.185Z,37.39
2023-05-31T00:47:58.272Z,37.56
2023-05-31T00:51:00.486Z,37.54
2023-05-31T00:54:03.069Z,37.67
2023-05-31T00:57:05.144Z,37.63
2023-05-31T01:00:08.987Z,37.64
2023-05-31T01:03:10.528Z,37.70
2023-05-31T01:06:12.182Z,37.68
2023-05-31T01:09:14.066Z,38.00
2023-05-31T01:12:44.595Z,37.93
2023-05-31T01:16:12.125Z,37.75
2023-05-31T01:19:26.116Z,38.08
2023-05-31T01:22:51.453Z,38.26
2023-05-31T01:26:08.694Z,38.24
2023-05-31T01:29:17.911Z,38.28
2023-05-31T01:32:22.380Z,38.50
2023-05-31T01:35:23.867Z,38.46
2023-05-31T01:38:26.358Z,38.28
2023-05-31T01:41:31.980Z,38.27
2023-05-31T01:44:34.184Z,38.28
2023-05-31T01:47:36.294Z,38.38
2023-05-31T01:50:37.941Z,38.53
2023-05-31T01:53:39.628Z,38.31
2023-05-31T01:56:42.747Z,37.96
2023-05-31T01:59:45.587Z,38.07
2023-05-31T02:02:47.927Z,38.29
2023-05-31T02:05:59.771Z,38.37
2023-05-31T02:09:01.349Z,38.13
2023-05-31T02:12:03.372Z,38.27
2023-05-31T02:15:14.365Z,38.28
2023-05-31T02:18:18.071Z,38.17
2023-05-31T02:21:20.887Z,38.64
2023-05-31T02:24:22.334Z,38.47
2023-05-31T02:27:23.758Z,38.78
2023-05-31T02:30:32.867Z,38.90
2023-05-31T02:33:34.286Z,38.82
2023-05-31T02:36:36.121Z,39.05
2023-05-31T02:39:37.567Z,39.18
2023-05-31T02:42:41.389Z,39.31
2023-05-31T02:45:43.322Z,39.59
2023-05-31T02:48:45.591Z,39.62
2023-05-31T02:51:47.185Z,39.83
2023-05-31T02:54:48.662Z,39.79
2023-05-31T02:57:55.705Z,40.00
2023-05-31T03:00:57.561Z,39.92
2023-05-31T03:04:00.994Z,39.69
2023-05-31T03:07:07.603Z,39.58
2023-05-31T03:10:11.474Z,39.79
2023-05-31T03:13:13.219Z,40.01
2023-05-31T03:16:14.714Z,39.89
2023-05-31T03:19:16.264Z,39.92
2023-05-31T03:22:21.791Z,39.97
2023-05-31T03:25:23.258Z,39.86
2023-05-31T03:28:24.771Z,40.24
2023-05-31T03:31:30.078Z,40.07
2023-05-31T03:34:33.987Z,40.23
2023-05-31T03:37:36.079Z,40.44
2023-05-31T03:40:42.282Z,40.62
2023-05-31T03:43:43.847Z,40.49
2023-05-31T03:46:45.382Z,40.31
2023-05-31T03:49:46.845Z,40.68
2023-05-31T03:52:48.283Z,40.67
2023-05-31T03:55:49.721Z,41.07
2023-05-31T03:58:51.412Z,40.62
2023-05-31T04:01:54.512Z,41.09
2023-05-31T04:04:56.153Z,41.02
2023-05-31T04:08:02.766Z,40.49
2023-05-31T04:11:07.013Z,40.92
2023-05-31T04:14:08.477Z,41.15
2023-05-31T04:17:10.061Z,40.78
2023-05-31T04:20:14.066Z,41.08
2023-05-31T04:23:15.989Z,41.17
2023-05-31T04:26:18.799Z,41.41
2023-05-31T04:29:22.581Z,41.24
2023-05-31T04:32:26.064Z,41.59
2023-05-31T04:35:30.022Z,42.23
2023-05-31T04:38:33.374Z,40.52
2023-05-31T04:41:35.099Z,40.52
2023-05-31T04:44:37.400Z,40.38
2023-05-31T04:47:38.970Z,40.65
2023-05-31T04:50:41.470Z,40.82
2023-05-31T04:53:42.997Z,41.93
2023-05-31T04:56:44.484Z,40.47
2023-05-31T04:59:45.971Z,41.27
2023-05-31T05:02:47.563Z,40.82
2023-05-31T05:05:51.621Z,40.78
2023-05-31T05:08:53.377Z,40.21
2023-05-31T05:11:56.867Z,40.11
2023-05-31T05:14:58.349Z,40.11
2023-05-31T05:18:01.060Z,40.18
2023-05-31T05:21:02.788Z,39.86
2023-05-31T05:24:07.167Z,39.75
2023-05-31T05:27:09.953Z,39.99
2023-05-31T05:30:14.122Z,39.76
2023-05-31T05:33:16.125Z,39.37
2023-05-31T05:36:17.934Z,39.32
2023-05-31T05:39:25.311Z,39.63
2023-05-31T05:42:28.656Z,39.70
2023-05-31T05:45:30.215Z,40.56
2023-05-31T05:48:32.885Z,40.83
2023-05-31T05:51:34.402Z,40.68
2023-05-31T05:54:41.686Z,42.04
2023-05-31T05:57:46.025Z,40.26
2023-05-31T06:01:01.262Z,40.26
2023-05-31T06:04:03.045Z,40.29
2023-05-31T06:07:04.654Z,40.43
2023-05-31T06:10:06.868Z,39.76
2023-05-31T06:13:08.337Z,40.01
2023-05-31T06:16:09.982Z,39.63
2023-05-31T06:19:11.624Z,39.46
2023-05-31T06:22:13.239Z,39.40
2023-05-31T06:25:14.817Z,39.42
2023-05-31T06:28:16.566Z,39.60
2023-05-31T06:31:19.040Z,39.21
2023-05-31T06:34:20.717Z,39.22
2023-05-31T06:37:25.105Z,39.28
2023-05-31T06:40:26.938Z,39.23
2023-05-31T06:43:28.371Z,39.33
2023-05-31T06:46:52.007Z,39.12
2023-05-31T06:50:31.365Z,39.36
2023-05-31T06:53:51.335Z,38.29
2023-05-31T06:56:58.895Z,38.54
2023-05-31T07:00:00.701Z,38.52
2023-05-31T07:03:02.436Z,38.91
2023-05-31T07:06:04.289Z,37.96
2023-05-31T07:09:06.559Z,38.57
2023-05-31T07:12:11.541Z,38.89
2023-05-31T07:15:13.008Z,38.92
2023-05-31T07:18:14.538Z,39.12
2023-05-31T07:21:16.865Z,39.12
2023-05-31T07:24:18.325Z,38.24
2023-05-31T07:27:20.675Z,38.69
2023-05-31T07:30:22.171Z,39.10
2023-05-31T07:33:28.986Z,38.38
2023-05-31T07:36:31.996Z,38.14
2023-05-31T07:39:33.414Z,37.24
2023-05-31T07:42:35.541Z,37.24
2023-05-31T07:45:37.070Z,36.88
2023-05-31T07:48:38.598Z,36.49
2023-05-31T07:51:40.661Z,36.23
2023-05-31T07:54:42.070Z,36.26
2023-05-31T07:57:43.539Z,36.24
2023-05-31T08:00:45.338Z,36.91
2023-05-31T08:03:47.220Z,35.88
2023-05-31T08:06:48.706Z,35.12
2023-05-31T08:09:50.165Z,34.78
2023-05-31T08:12:51.643Z,34.93
2023-05-31T08:15:53.353Z,34.69
2023-05-31T08:18:55.011Z,34.80
2023-05-31T08:21:57.072Z,33.96
2023-05-31T08:25:01.350Z,33.65
2023-05-31T08:28:05.166Z,33.96
2023-05-31T08:31:09.721Z,34.06
2023-05-31T08:34:13.303Z,34.16
2023-05-31T08:37:14.998Z,33.11
2023-05-31T08:40:16.548Z,33.33
2023-05-31T08:43:22.267Z,32.93
2023-05-31T08:46:24.037Z,33.11
2023-05-31T08:49:26.238Z,33.15
2023-05-31T08:52:29.172Z,32.76
2023-05-31T08:55:31.032Z,32.23
2023-05-31T08:58:33.216Z,33.00
2023-05-31T09:01:36.339Z,32.21
2023-05-31T09:04:40.590Z,32.05
2023-05-31T09:07:42.256Z,32.39
2023-05-31T09:10:43.712Z,31.79
2023-05-31T09:13:45.169Z,32.02
2023-05-31T09:16:51.151Z,31.18
2023-05-31T09:19:55.036Z,31.48
2023-05-31T09:22:56.558Z,31.04
2023-05-31T09:26:00.890Z,30.81
2023-05-31T09:29:02.341Z,31.48
2023-05-31T09:32:11.081Z,31.56
2023-05-31T09:35:18.041Z,30.82
2023-05-31T09:38:19.516Z,30.24
2023-05-31T09:41:22.234Z,30.84
2023-05-31T09:44:29.098Z,30.52
2023-05-31T09:47:31.033Z,30.29
2023-05-31T09:50:32.603Z,29.28
2023-05-31T09:53:41.888Z,29.85
2023-05-31T09:56:44.806Z,28.96
2023-05-31T09:59:47.633Z,29.09
2023-05-31T10:02:52.236Z,29.29
2023-05-31T10:05:53.796Z,29.09
2023-05-31T10:08:55.457Z,29.73
2023-05-31T10:12:03.341Z,28.87
2023-05-31T10:15:10.046Z,28.80
2023-05-31T10:18:17.297Z,28.83
2023-05-31T10:21:25.818Z,28.56
2023-05-31T10:24:34.117Z,29.48
2023-05-31T10:27:39.361Z,28.18
2023-05-31T10:30:42.519Z,28.80
2023-05-31T10:33:50.056Z,28.89
2023-05-31T10:36:52.839Z,28.98
2023-05-31T10:40:07.441Z,29.10
2023-05-31T10:43:35.687Z,28.88
2023-05-31T10:46:41.217Z,28.86
2023-05-31T10:49:44.502Z,28.98
2023-05-31T10:52:49.142Z,28.29
2023-05-31T10:55:50.802Z,28.42
2023-05-31T10:58:56.882Z,28.17
2023-05-31T11:02:00.843Z,27.47
2023-05-31T11:05:21.754Z,27.61
2023-05-31T11:08:23.924Z,27.64
2023-05-31T11:11:26.206Z,27.25
2023-05-31T11:14:32.163Z,26.98
2023-05-31T11:17:51.070Z,27.00
2023-05-31T11:20:52.631Z,27.62
2023-05-31T11:23:55.788Z,27.83
2023-05-31T11:27:05.418Z,27.75
2023-05-31T11:30:35.841Z,26.74
2023-05-31T11:33:57.524Z,27.20
2023-05-31T11:37:03.557Z,26.15
2023-05-31T11:40:13.459Z,26.16
2023-05-31T11:43:19.803Z,25.63
2023-05-31T11:46:21.394Z,25.55
2023-05-31T11:49:23.157Z,26.01
2023-05-31T11:52:24.795Z,24.50
2023-05-31T11:55:36.538Z,25.28
2023-05-31T11:58:38.001Z,24.78
2023-05-31T12:01:41.080Z,24.76
2023-05-31T12:04:43.815Z,24.99
2023-05-31T12:07:46.549Z,25.01
2023-05-31T12:10:48.173Z,23.98
2023-05-31T12:13:50.036Z,23.77
2023-05-31T12:16:52.211Z,24.15
2023-05-31T12:19:53.644Z,25.08
2023-05-31T12:23:13.158Z,24.28
2023-05-31T12:26:15.699Z,24.29
2023-05-31T12:29:18.464Z,24.13
2023-05-31T12:32:20.481Z,25.01
2023-05-31T12:35:22.016Z,24.35
2023-05-31T12:38:29.920Z,24.64
2023-05-31T12:41:31.523Z,23.83
2023-05-31T12:44:34.230Z,23.81
2023-05-31T12:47:37.074Z,24.22
2023-05-31T12:50:46.141Z,24.80
2023-05-31T12:53:47.688Z,24.49
2023-05-31T12:56:49.151Z,24.72
2023-05-31T12:59:58.737Z,24.23
2023-05-31T13:03:00.497Z,24.51
2023-05-31T13:06:02.921Z,24.86
2023-05-31T13:09:05.645Z,23.47
2023-05-31T13:12:07.854Z,23.73
2023-05-31T13:15:09.842Z,24.09
2023-05-31T13:18:11.351Z,23.63
2023-05-31T13:21:13.027Z,23.46
2023-05-31T13:24:14.978Z,23.66
2023-05-31T13:27:16.612Z,23.34
2023-05-31T13:30:18.136Z,23.05
2023-05-31T13:33:19.842Z,23.08
2023-05-31T13:36:23.733Z,23.18
2023-05-31T13:39:25.206Z,23.34
2023-05-31T13:42:27.199Z,22.76
2023-05-31T13:45:28.624Z,22.54
2023-05-31T13:48:30.205Z,23.50
2023-05-31T13:51:31.952Z,22.96
2023-05-31T13:54:33.374Z,22.89
2023-05-31T13:57:34.834Z,22.29
2023-05-31T14:00:40.036Z,21.90
2023-05-31T14:03:44.514Z,21.60
2023-05-31T14:06:46.993Z,22.04
2023-05-31T14:09:48.409Z,22.44
2023-05-31T14:12:50.090Z,22.25
2023-05-31T14:15:52.680Z,22.34
2023-05-31T14:18:55.721Z,21.64
2023-05-31T14:21:57.608Z,22.06
2023-05-31T14:24:59.265Z,21.09
2023-05-31T14:28:00.838Z,21.23
2023-05-31T14:31:03.393Z,21.22
2023-05-31T14:34:05.456Z,22.06
2023-05-31T14:37:14.911Z,21.78
2023-05-31T14:40:17.386Z,21.41
2023-05-31T14:43:18.851Z,21.25
2023-05-31T14:46:20.431Z,21.34
2023-05-31T14:49:22.194Z,21.53
2023-05-31T14:52:23.843Z,20.86
2023-05-31T14:55:25.270Z,21.24
2023-05-31T14:58:28.274Z,21.62
2023-05-31T15:01:29.980Z,21.36
2023-05-31T15:04:31.464Z,21.45
2023-05-31T15:07:32.916Z,20.17
2023-05-31T15:10:34.389Z,20.76
2023-05-31T15:13:35.825Z,20.44
2023-05-31T15:16:37.399Z,20.05
2023-05-31T15:19:39.476Z,20.51
2023-05-31T15:22:40.970Z,21.17
2023-05-31T15:25:42.638Z,20.34
2023-05-31T15:28:44.061Z,21.12
2023-05-31T15:31:45.575Z,21.13
2023-05-31T15:34:47.022Z,21.31
2023-05-31T15:37:48.574Z,20.96
2023-05-31T15:40:50.393Z,20.16
2023-05-31T15:43:51.940Z,20.01
2023-05-31T15:46:53.576Z,20.19
2023-05-31T15:49:55.664Z,20.85
2023-05-31T15:52:57.102Z,20.64
2023-05-31T15:55:58.654Z,20.45
2023-05-31T15:59:00.303Z,20.43
2023-05-31T16:02:02.115Z,20.54
2023-05-31T16:05:04.201Z,20.00
2023-05-31T16:08:06.426Z,20.24
2023-05-31T16:11:07.873Z,19.76
2023-05-31T16:14:10.340Z,19.66
2023-05-31T16:17:11.799Z,20.16
2023-05-31T16:20:13.695Z,20.18
2023-05-31T16:23:15.175Z,20.03
2023-05-31T16:26:16.962Z,20.71
2023-05-31T16:29:18.550Z,20.51
2023-05-31T16:32:20.003Z,20.85
2023-05-31T16:35:21.546Z,20.57
2023-05-31T16:38:23.052Z,21.09
2023-05-31T16:41:24.453Z,20.71
2023-05-31T16:44:26.003Z,21.00
2023-05-31T16:47:27.469Z,20.95
2023-05-31T16:50:28.954Z,21.31
2023-05-31T16:53:30.700Z,21.68
2023-05-31T16:56:32.221Z,21.05
2023-05-31T16:59:33.744Z,21.06
2023-05-31T17:02:35.221Z,21.01
2023-05-31T17:05:36.757Z,21.20
2023-05-31T17:08:38.253Z,21.44
2023-05-31T17:11:39.968Z,21.65
2023-05-31T17:14:41.426Z,21.77
2023-05-31T17:17:43.396Z,22.50
2023-05-31T17:20:44.918Z,22.36
2023-05-31T17:23:46.406Z,22.44
2023-05-31T17:26:48.331Z,22.56
2023-05-31T17:29:49.818Z,22.27
2023-05-31T17:32:51.666Z,22.67
2023-05-31T17:35:55.311Z,23.53
2023-05-31T17:38:57.746Z,23.37
2023-05-31T17:41:59.231Z,23.78
2023-05-31T17:45:00.657Z,23.77
2023-05-31T17:48:02.696Z,23.91
2023-05-31T17:51:04.233Z,23.96
2023-05-31T17:54:05.931Z,23.99
2023-05-31T17:57:08.203Z,24.08
2023-05-31T18:00:10.317Z,24.45
2023-05-31T18:03:13.377Z,24.45
2023-05-31T18:06:14.973Z,24.56
2023-05-31T18:09:16.643Z,24.80
2023-05-31T18:12:18.150Z,25.17
2023-05-31T18:15:19.618Z,25.10
2023-05-31T18:18:21.297Z,25.02
2023-05-31T18:21:22.925Z,25.18
2023-05-31T18:24:24.368Z,25.34
2023-05-31T18:27:25.788Z,25.69
2023-05-31T18:30:30.155Z,25.96
2023-05-31T18:33:31.607Z,26.17
2023-05-31T18:36:33.107Z,26.17
2023-05-31T18:39:34.909Z,26.08
2023-05-31T18:42:37.060Z,26.33
2023-05-31T18:45:38.658Z,26.14
2023-05-31T18:48:40.144Z,26.50
2023-05-31T18:51:41.718Z,26.24
2023-05-31T18:54:43.367Z,26.36
2023-05-31T18:57:44.948Z,26.54
2023-05-31T19:00:47.174Z,26.97
2023-05-31T19:03:49.561Z,26.99
2023-05-31T19:06:51.890Z,27.00
2023-05-31T19:09:53.373Z,27.24
2023-05-31T19:12:54.822Z,27.33
2023-05-31T19:15:56.798Z,27.54
2023-05-31T19:18:58.453Z,27.94
2023-05-31T19:22:00.798Z,28.24
2023-05-31T19:25:02.703Z,28.35
2023-05-31T19:28:04.159Z,28.50
2023-05-31T19:31:05.645Z,28.39
2023-05-31T19:34:07.166Z,28.77
2023-05-31T19:37:08.636Z,28.92
2023-05-31T19:40:10.708Z,28.97
2023-05-31T19:43:12.282Z,29.42
2023-05-31T19:46:24.071Z,29.42
2023-05-31T19:49:26.516Z,29.72
2023-05-31T19:52:27.976Z,30.49
2023-05-31T19:55:30.195Z,30.35
2023-05-31T19:58:32.144Z,30.77
2023-05-31T20:01:33.621Z,31.31
2023-05-31T20:04:35.450Z,31.15
2023-05-31T20:07:37.206Z,31.38
2023-05-31T20:10:39.376Z,32.28
2023-05-31T20:13:41.007Z,33.01
2023-05-31T20:16:43.065Z,33.13
2023-05-31T20:19:44.528Z,33.48
2023-05-31T20:22:46.044Z,33.92
2023-05-31T20:25:47.532Z,34.27
2023-05-31T20:28:49.366Z,34.81
2023-05-31T20:31:50.861Z,34.75
2023-05-31T20:34:52.322Z,34.44
2023-05-31T20:37:53.746Z,34.64
2023-05-31T20:40:55.275Z,35.02
2023-05-31T20:43:56.690Z,35.79
2023-05-31T20:46:58.381Z,36.04
2023-05-31T20:49:59.931Z,36.64
2023-05-31T20:53:01.850Z,37.06
2023-05-31T20:56:03.550Z,37.56
2023-05-31T20:59:05.423Z,37.87
2023-05-31T21:02:07.048Z,37.20
2023-05-31T21:05:08.766Z,37.94
2023-05-31T21:08:10.323Z,38.12
2023-05-31T21:11:11.831Z,38.27
2023-05-31T21:14:13.251Z,38.63
2023-05-31T21:17:14.795Z,39.33
2023-05-31T21:20:16.227Z,39.36
2023-05-31T21:23:18.927Z,39.46
2023-05-31T21:26:20.436Z,39.45
2023-05-31T21:29:21.945Z,39.83
2023-05-31T21:32:23.501Z,40.60
2023-05-31T21:35:25.135Z,40.16
2023-05-31T21:38:26.602Z,41.12
2023-05-31T21:41:28.065Z,40.97
2023-05-31T21:44:29.750Z,40.66
2023-05-31T21:47:31.226Z,41.12
2023-05-31T21:50:32.705Z,40.95
2023-05-31T21:53:34.114Z,40.66
2023-05-31T21:56:35.585Z,41.60
2023-05-31T21:59:37.337Z,42.26
2023-05-31T22:02:39.304Z,41.84
2023-05-31T22:05:40.801Z,42.51
2023-05-31T22:08:42.312Z,42.62
2023-05-31T22:11:43.933Z,42.93
2023-05-31T22:14:45.587Z,44.04
2023-05-31T22:17:50.774Z,44.10
2023-05-31T22:20:57.692Z,44.33
2023-05-31T22:23:59.596Z,44.23
2023-05-31T22:27:01.447Z,44.87
2023-05-31T22:30:04.288Z,45.02
2023-05-31T22:33:06.361Z,44.95
2023-05-31T22:36:08.555Z,45.01
2023-05-31T22:39:09.973Z,44.85
2023-05-31T22:42:11.446Z,44.97
2023-05-31T22:45:13.340Z,44.99
2023-05-31T22:48:14.823Z,45.60
2023-05-31T22:51:17.146Z,45.60
2023-05-31T22:54:18.569Z,45.99
2023-05-31T22:57:19.971Z,46.44
2023-05-31T23:00:21.674Z,46.02
2023-05-31T23:03:23.422Z,46.49
2023-05-31T23:06:26.395Z,45.65
2023-05-31T23:09:29.299Z,46.30
2023-05-31T23:12:34.450Z,46.11
2023-05-31T23:15:39.303Z,46.34
2023-05-31T23:18:41.710Z,46.22
2023-05-31T23:21:46.104Z,45.80
2023-05-31T23:24:47.798Z,46.34
2023-05-31T23:27:49.220Z,46.66
2023-05-31T23:30:50.682Z,45.89
2023-05-31T23:33:52.656Z,46.77
2023-05-31T23:36:54.086Z,46.89
2023-05-31T23:39:55.562Z,45.78
2023-05-31T23:42:56.976Z,45.13
2023-05-31T23:45:58.399Z,44.85
2023-05-31T23:48:59.896Z,44.09
2023-05-31T23:52:01.518Z,43.75
2023-05-31T23:55:04.170Z,43.98
2023-05-31T23:58:05.613Z,43.68
